Time;durP1;ratioP1;P1;durP2;ratioP2;P2;SDS_P1;SDS_P2;PMS_P1;PMS_P2;Temp;Humidity;BMP_temperature;BMP_pressure;BME280_temperature;BME280_humidity;BME280_pressure;Samples;Min_cycle;Max_cycle;Signal;HPM_P1;HPM_P2
2022/05/09 15:00:31;;;;;;;5.20;3.23;;;33.00;22.30;;;;;;5112714;27;20577;-73
2022/05/09 15:03:01;;;;;;;5.47;3.60;;;33.30;22.10;;;;;;5112347;28;20433;-73
2022/05/09 15:05:28;;;;;;;5.93;3.13;;;33.70;22.30;;;;;;5111961;28;20452;-73
2022/05/09 15:07:55;;;;;;;7.13;4.37;;;33.30;21.10;;;;;;5112172;28;20460;-72
2022/05/09 15:10:22;;;;;;;6.40;3.20;;;32.40;21.80;;;;;;5111943;28;20452;-74
2022/05/09 15:12:49;;;;;;;8.70;3.60;;;31.60;22.30;;;;;;5111853;28;20452;-74
2022/05/09 15:15:15;;;;;;;4.57;3.00;;;31.60;22.80;;;;;;5112423;28;20788;-74
2022/05/09 15:17:44;;;;;;;4.80;3.60;;;31.80;23.30;;;;;;5112072;28;20487;-74
2022/05/09 15:20:11;;;;;;;9.50;3.47;;;31.80;23.30;;;;;;5113142;28;20484;-76
2022/05/09 15:22:38;;;;;;;3.87;3.47;;;31.60;23.30;;;;;;5114220;28;20453;-75
2022/05/09 15:25:06;;;;;;;6.90;4.57;;;31.50;23.30;;;;;;5112175;28;20513;-75
2022/05/09 15:27:33;;;;;;;3.60;3.30;;;31.00;23.70;;;;;;5111726;28;20944;-75
2022/05/09 15:30:02;;;;;;;4.20;3.20;;;30.60;24.00;;;;;;5112219;28;20524;-75
2022/05/09 15:32:29;;;;;;;13.20;11.80;;;30.20;24.10;;;;;;5111423;28;20479;-75
2022/05/09 15:34:57;;;;;;;6.73;3.77;;;29.70;24.50;;;;;;5111909;28;20754;-76
2022/05/09 15:37:24;;;;;;;6.20;3.17;;;29.10;24.80;;;;;;5112580;28;20464;-76
2022/05/09 15:39:51;;;;;;;4.73;3.60;;;28.40;25.70;;;;;;5113070;28;20473;-76
2022/05/09 15:42:24;;;;;;;6.17;3.50;;;27.90;26.10;;;;;;5112590;28;20467;-76
2022/05/09 15:44:55;;;;;;;5.00;3.83;;;27.40;26.60;;;;;;5112241;28;20440;-77
2022/05/09 15:47:23;;;;;;;5.53;3.20;;;27.10;27.10;;;;;;5113239;28;20456;-76
2022/05/09 15:49:52;;;;;;;4.90;3.63;;;26.70;27.30;;;;;;5111570;28;20448;-75
2022/05/09 15:52:20;;;;;;;6.03;3.80;;;26.40;27.80;;;;;;5111285;28;20452;-77
2022/05/09 15:54:47;;;;;;;8.10;3.33;;;26.20;28.70;;;;;;5111702;28;20456;-75
2022/05/09 15:57:19;;;;;;;7.63;5.37;;;25.90;28.00;;;;;;5112125;28;20456;-76
2022/05/09 15:59:46;;;;;;;7.00;4.10;;;25.70;29.00;;;;;;5112368;28;20515;-74
2022/05/09 16:02:14;;;;;;;4.77;3.80;;;25.60;28.90;;;;;;5111125;28;20460;-75
2022/05/09 16:04:41;;;;;;;3.97;3.33;;;25.50;29.20;;;;;;5110629;28;20472;-74
2022/05/09 16:12:38;;;;;;;5.27;3.57;;;25.20;28.90;;;;;;5097454;28;20429;-76
2022/05/09 16:15:06;;;;;;;5.13;3.40;;;25.00;30.00;;;;;;5098465;28;20461;-76
2022/05/09 16:17:34;;;;;;;5.90;3.30;;;25.00;30.00;;;;;;5097383;28;20464;-75
2022/05/09 16:20:04;;;;;;;3.70;3.40;;;25.00;30.00;;;;;;5097375;28;20569;-74
2022/05/09 16:22:32;;;;;;;3.90;3.50;;;25.00;30.50;;;;;;5097345;28;20464;-74
2022/05/09 16:25:01;;;;;;;5.13;4.40;;;25.00;31.10;;;;;;5097494;28;20496;-76
2022/05/09 16:27:30;;;;;;;5.50;4.40;;;25.10;30.90;;;;;;5097188;28;20487;-75
2022/05/09 16:29:59;;;;;;;4.27;3.90;;;25.10;31.10;;;;;;5097128;28;20781;-75
2022/05/09 16:32:27;;;;;;;5.73;4.10;;;25.20;31.00;;;;;;5097103;28;20468;-75
2022/05/09 16:34:54;;;;;;;5.37;4.30;;;25.40;31.10;;;;;;5096943;28;20453;-75
2022/05/09 16:37:21;;;;;;;5.80;3.70;;;25.60;31.20;;;;;;5096992;28;20457;-76
2022/05/09 16:39:52;;;;;;;4.47;3.53;;;26.00;30.30;;;;;;5096784;28;20484;-75
2022/05/09 16:42:23;;;;;;;6.00;3.73;;;26.30;29.10;;;;;;5096704;28;20747;-75
2022/05/09 16:44:55;;;;;;;7.30;6.30;;;26.60;28.90;;;;;;5096447;28;20446;-75
2022/05/09 16:47:23;;;;;;;6.73;3.67;;;26.70;29.30;;;;;;5096519;28;20453;-74
2022/05/09 16:49:49;;;;;;;4.47;3.80;;;26.90;28.50;;;;;;5096659;28;20449;-75
2022/05/09 16:52:16;;;;;;;4.13;2.80;;;27.10;28.20;;;;;;5096485;28;20522;-76
2022/05/09 16:54:43;;;;;;;6.13;4.23;;;27.30;27.90;;;;;;5096773;28;20494;-75
2022/05/09 16:57:11;;;;;;;5.00;4.00;;;27.40;27.90;;;;;;5096144;28;20480;-76
2022/05/09 16:59:43;;;;;;;5.90;3.90;;;27.30;27.70;;;;;;5096371;28;20485;-75
2022/05/09 17:02:11;;;;;;;4.13;3.40;;;26.90;27.90;;;;;;5096401;28;20448;-74
2022/05/09 17:04:37;;;;;;;3.80;3.33;;;26.30;28.40;;;;;;5097102;28;20478;-76
2022/05/09 17:07:05;;;;;;;13.87;10.30;;;25.70;28.90;;;;;;5096297;28;20461;-75
2022/05/09 17:09:32;;;;;;;4.83;3.90;;;25.20;29.80;;;;;;5096840;28;20545;-73
2022/05/09 17:11:59;;;;;;;5.67;3.93;;;24.80;30.10;;;;;;5097497;28;20914;-75
2022/05/09 17:14:26;;;;;;;6.70;3.23;;;24.50;30.60;;;;;;5098908;28;20468;-77
2022/05/09 17:16:54;;;;;;;5.03;4.13;;;24.20;30.90;;;;;;5100948;28;20457;-76
2022/05/09 17:19:20;;;;;;;5.37;3.03;;;23.90;31.30;;;;;;5100101;28;20480;-75
2022/05/09 17:21:47;;;;;;;7.20;4.00;;;23.70;31.40;;;;;;5099098;28;20765;-76
2022/05/09 17:24:15;;;;;;;8.70;3.70;;;23.40;32.40;;;;;;5100891;28;20462;-76
2022/05/09 17:26:43;;;;;;;4.23;3.10;;;23.30;32.80;;;;;;5100037;28;20457;-76
2022/05/09 17:29:10;;;;;;;7.07;3.30;;;23.10;33.00;;;;;;5100314;28;20590;-76
2022/05/09 17:31:37;;;;;;;6.17;3.40;;;23.00;33.10;;;;;;5099589;28;20926;-75
2022/05/09 17:34:08;;;;;;;5.07;3.40;;;22.90;33.30;;;;;;5099640;28;20457;-75
2022/05/09 17:39:20;;;;;;;7.73;4.30;;;22.70;33.60;;;;;;5101151;28;20522;-76
2022/05/09 17:41:48;;;;;;;6.57;3.03;;;22.60;33.80;;;;;;5100042;28;20453;-76
2022/05/09 17:44:16;;;;;;;4.50;4.07;;;22.50;34.00;;;;;;5100426;28;20552;-76
2022/05/09 17:46:47;;;;;;;5.07;3.70;;;22.50;34.30;;;;;;5099667;28;20464;-76
2022/05/09 17:49:16;;;;;;;3.63;3.33;;;22.40;34.20;;;;;;5098870;28;20430;-76
2022/05/09 17:51:44;;;;;;;4.87;3.40;;;22.30;34.40;;;;;;5099938;28;20795;-77
2022/05/09 17:54:11;;;;;;;7.80;4.10;;;22.20;34.70;;;;;;5099627;28;20534;-76
2022/05/09 17:56:39;;;;;;;5.97;4.00;;;22.10;35.10;;;;;;5099606;28;20453;-76
2022/05/09 17:59:06;;;;;;;7.30;4.83;;;22.00;35.00;;;;;;5098704;28;20489;-77
2022/05/09 18:01:36;;;;;;;5.80;4.73;;;21.90;35.30;;;;;;5100266;28;20763;-76
2022/05/09 18:04:05;;;;;;;7.33;3.30;;;21.90;35.50;;;;;;5099810;28;20467;-77
2022/05/09 18:06:33;;;;;;;3.60;3.03;;;21.80;35.90;;;;;;5101768;28;20496;-76
2022/05/09 18:08:59;;;;;;;7.13;3.50;;;21.70;36.00;;;;;;5101461;28;20453;-76
2022/05/09 18:11:29;;;;;;;8.10;4.60;;;21.60;36.30;;;;;;5101766;28;20477;-76
2022/05/09 18:13:57;;;;;;;7.57;5.00;;;21.60;36.60;;;;;;5102734;28;20579;-76
2022/05/09 18:16:24;;;;;;;4.03;2.90;;;21.50;36.60;;;;;;5101266;28;20813;-75
2022/05/09 18:18:55;;;;;;;6.50;3.30;;;21.50;36.90;;;;;;5101268;28;20547;-76
2022/05/09 18:21:25;;;;;;;4.47;3.07;;;21.40;37.10;;;;;;5102383;28;20434;-76
2022/05/09 18:23:57;;;;;;;7.93;4.07;;;21.30;37.30;;;;;;5103043;28;20547;-75
2022/05/09 18:26:24;;;;;;;4.00;2.90;;;21.20;37.60;;;;;;5102554;28;20449;-75
2022/05/09 18:28:51;;;;;;;5.27;3.50;;;21.20;37.70;;;;;;5100532;28;20456;-76
2022/05/09 18:31:18;;;;;;;5.30;3.53;;;21.10;38.00;;;;;;5100717;28;20441;-77
2022/05/09 18:33:46;;;;;;;6.73;5.17;;;21.00;38.10;;;;;;5102198;28;20483;-76
2022/05/09 18:36:15;;;;;;;5.50;3.93;;;21.00;38.50;;;;;;5099697;28;20449;-75
2022/05/09 18:38:46;;;;;;;7.43;3.07;;;20.90;38.70;;;;;;5096106;28;20518;-75
2022/05/09 18:41:15;;;;;;;4.17;3.40;;;20.80;39.00;;;;;;5095509;28;20469;-76
2022/05/09 18:43:43;;;;;;;5.07;3.00;;;20.70;39.30;;;;;;5095235;28;20457;-74
2022/05/09 18:46:11;;;;;;;9.67;6.07;;;20.70;39.70;;;;;;5095782;28;20489;-75
2022/05/09 18:48:37;;;;;;;4.27;3.37;;;20.60;40.20;;;;;;5098126;28;20457;-75
2022/05/09 18:53:55;;;;;;;5.97;3.70;;;20.50;40.70;;;;;;5101946;28;20425;-76
2022/05/09 18:56:24;;;;;;;15.17;8.67;;;20.40;41.30;;;;;;5103394;28;20457;-76
2022/05/09 18:58:50;;;;;;;5.00;4.13;;;20.30;41.60;;;;;;5103171;28;20491;-75
2022/05/09 19:01:17;;;;;;;16.57;5.03;;;20.30;42.20;;;;;;5097137;28;20485;-75
2022/05/09 19:03:44;;;;;;;4.83;3.30;;;20.20;43.20;;;;;;5099784;28;20821;-75
2022/05/09 19:06:12;;;;;;;7.77;3.90;;;20.10;44.20;;;;;;5100870;28;20491;-74
2022/05/09 19:08:40;;;;;;;4.50;3.80;;;20.00;44.60;;;;;;5098332;28;20481;-74
2022/05/09 19:11:12;;;;;;;6.53;3.97;;;20.00;44.80;;;;;;5103668;28;20457;-75
2022/05/09 19:13:43;;;;;;;4.80;3.80;;;19.90;44.50;;;;;;5098474;28;20532;-75
2022/05/09 19:16:22;;;;;;;10.77;4.03;;;19.80;44.90;;;;;;5095219;28;20451;-76
2022/05/09 19:18:48;;;;;;;6.00;4.10;;;19.80;45.20;;;;;;5094900;28;20442;-73
2022/05/09 19:21:15;;;;;;;4.13;3.70;;;19.70;45.70;;;;;;5094810;28;20492;-74
2022/05/09 19:23:42;;;;;;;5.43;3.53;;;19.60;46.40;;;;;;5094666;28;20540;-74
2022/05/09 19:26:10;;;;;;;5.73;4.00;;;19.60;47.40;;;;;;5094826;28;20522;-75
2022/05/09 19:28:44;;;;;;;3.73;3.33;;;19.50;47.90;;;;;;5094760;28;20521;-74
2022/05/09 19:31:13;;;;;;;5.33;3.60;;;19.50;48.50;;;;;;5094575;28;20752;-75
2022/05/09 19:33:42;;;;;;;8.90;4.00;;;19.40;48.70;;;;;;5094835;28;20463;-74
2022/05/09 19:36:09;;;;;;;5.63;3.63;;;19.30;49.20;;;;;;5094160;28;20481;-75
2022/05/09 19:38:37;;;;;;;6.53;4.23;;;19.30;49.80;;;;;;5094408;28;20453;-74
2022/05/09 19:41:08;;;;;;;10.03;4.50;;;19.20;50.20;;;;;;5094410;28;20481;-75
2022/05/09 19:43:36;;;;;;;7.80;5.10;;;19.20;50.70;;;;;;5094395;28;20502;-74
2022/05/09 19:46:06;;;;;;;25.97;17.70;;;19.20;51.40;;;;;;5096164;28;20457;-75
2022/05/09 19:48:34;;;;;;;14.70;10.40;;;19.10;51.80;;;;;;5097894;28;20452;-74
2022/05/09 19:51:02;;;;;;;7.80;6.70;;;19.00;52.00;;;;;;5098027;28;20456;-74
2022/05/09 19:56:14;;;;;;;7.77;4.43;;;18.90;53.20;;;;;;5097821;28;20503;-74
2022/05/09 19:58:41;;;;;;;6.47;4.80;;;18.80;54.10;;;;;;5097408;28;20485;-74
2022/05/09 20:01:10;;;;;;;9.30;4.80;;;18.70;54.80;;;;;;5097419;28;20976;-75
2022/05/09 20:03:39;;;;;;;4.70;4.07;;;18.70;55.40;;;;;;5098086;28;20461;-74
2022/05/09 20:06:07;;;;;;;8.47;4.10;;;18.60;55.90;;;;;;5097688;28;20791;-74
2022/05/09 20:08:34;;;;;;;8.80;5.77;;;18.60;56.30;;;;;;5098237;28;20468;-73
2022/05/09 20:11:01;;;;;;;7.70;5.67;;;18.50;56.70;;;;;;5097849;28;20485;-74
2022/05/09 20:13:30;;;;;;;6.70;4.17;;;18.50;57.10;;;;;;5097806;28;20457;-76
2022/05/09 20:15:57;;;;;;;5.60;4.40;;;18.50;57.60;;;;;;5097499;28;20488;-75
2022/05/09 20:18:25;;;;;;;5.57;4.13;;;18.40;58.60;;;;;;5097833;28;20530;-74
2022/05/09 20:20:52;;;;;;;6.33;5.33;;;18.40;58.20;;;;;;5097310;28;20480;-74
2022/05/09 20:23:19;;;;;;;5.00;4.50;;;18.30;58.40;;;;;;5097302;28;20993;-74
2022/05/09 20:31:15;;;;;;;9.70;3.97;;;18.20;59.10;;;;;;5097512;28;20421;-74
2022/05/09 20:33:47;;;;;;;5.10;3.87;;;18.10;59.50;;;;;;5096996;28;20918;-73
2022/05/09 20:36:19;;;;;;;5.87;3.47;;;18.10;59.70;;;;;;5097183;28;20913;-74
2022/05/09 20:38:46;;;;;;;13.20;11.07;;;18.10;59.90;;;;;;5097292;28;20443;-73
2022/05/09 20:41:12;;;;;;;6.43;3.93;;;18.00;59.20;;;;;;5097541;28;20805;-74
2022/05/09 20:43:40;;;;;;;7.10;3.70;;;18.00;59.10;;;;;;5097068;28;20491;-74
2022/05/09 20:46:09;;;;;;;4.93;3.90;;;18.00;58.60;;;;;;5097264;28;20511;-74
2022/05/09 20:48:36;;;;;;;9.67;4.30;;;18.00;58.90;;;;;;5097129;28;20457;-74
2022/05/09 20:51:04;;;;;;;7.80;4.30;;;18.00;59.50;;;;;;5097056;28;20928;-73
2022/05/09 20:53:32;;;;;;;4.40;3.03;;;17.90;59.70;;;;;;5096518;28;20922;-74
2022/05/09 20:55:59;;;;;;;8.00;3.80;;;17.90;59.60;;;;;;5096881;28;20798;-73
2022/05/09 20:58:27;;;;;;;6.37;3.83;;;17.80;59.80;;;;;;5096323;28;20500;-73
2022/05/09 21:00:55;;;;;;;5.57;3.57;;;17.80;60.70;;;;;;5096589;28;20462;-74
2022/05/09 21:03:22;;;;;;;7.40;4.50;;;17.70;60.60;;;;;;5096480;28;20930;-73
2022/05/09 21:05:50;;;;;;;8.63;3.53;;;17.70;60.70;;;;;;5096766;28;20522;-74
2022/05/09 21:08:22;;;;;;;7.40;3.87;;;17.70;61.10;;;;;;5096163;28;20461;-74
2022/05/09 21:10:49;;;;;;;5.53;3.70;;;17.60;60.80;;;;;;5096568;28;20836;-73
2022/05/09 21:13:16;;;;;;;8.20;3.80;;;17.60;60.40;;;;;;5096462;28;20812;-73
2022/05/09 21:15:43;;;;;;;4.43;3.27;;;17.60;59.80;;;;;;5096465;28;20468;-73
2022/05/09 21:18:10;;;;;;;3.23;2.93;;;17.60;59.50;;;;;;5096705;28;20825;-73
2022/05/09 21:20:38;;;;;;;5.20;2.83;;;17.50;59.00;;;;;;5096495;28;20520;-74
2022/05/09 21:23:08;;;;;;;6.13;3.50;;;17.50;58.10;;;;;;5096351;28;20803;-73
2022/05/09 21:25:38;;;;;;;6.00;3.37;;;17.50;57.80;;;;;;5096505;28;20825;-72
2022/05/09 21:28:08;;;;;;;4.47;3.43;;;17.60;57.80;;;;;;5096200;28;20520;-72
2022/05/09 21:30:35;;;;;;;3.87;2.70;;;17.50;57.40;;;;;;5095983;28;20486;-73
2022/05/09 21:33:02;;;;;;;4.23;3.37;;;17.50;57.10;;;;;;5096183;28;20796;-73
2022/05/09 21:35:29;;;;;;;4.00;2.87;;;17.50;57.40;;;;;;5098168;28;20457;-72
2022/05/09 21:37:56;;;;;;;3.63;3.33;;;17.50;57.20;;;;;;5098481;28;20453;-73
2022/05/09 21:43:13;;;;;;;4.60;3.70;;;17.50;57.10;;;;;;5096548;28;20488;-73
2022/05/09 21:45:40;;;;;;;5.47;4.07;;;17.50;57.30;;;;;;5095900;28;20464;-73
2022/05/09 21:48:07;;;;;;;4.53;3.30;;;17.40;57.60;;;;;;5095576;28;20453;-72
2022/05/09 21:50:35;;;;;;;6.50;4.03;;;17.40;57.50;;;;;;5095863;28;20552;-73
2022/05/09 21:53:02;;;;;;;6.40;3.90;;;17.40;58.00;;;;;;5095520;28;20468;-73
2022/05/09 21:55:29;;;;;;;4.23;3.10;;;17.30;58.10;;;;;;5095485;28;20535;-72
2022/05/09 21:57:56;;;;;;;5.90;3.30;;;17.30;57.90;;;;;;5095644;28;20952;-74
2022/05/09 22:01:09;;;;;;;3.60;3.30;;;17.30;58.30;;;;;;5095911;28;20542;-74
2022/05/09 22:03:36;;;;;;;6.60;3.23;;;17.20;58.20;;;;;;5095787;28;20472;-73
2022/05/09 22:06:03;;;;;;;8.90;3.27;;;17.20;59.00;;;;;;5095587;28;20457;-74
2022/05/09 22:08:30;;;;;;;4.60;3.30;;;17.10;59.10;;;;;;5094850;28;20531;-73
2022/05/09 22:10:57;;;;;;;7.17;3.80;;;17.10;59.40;;;;;;5095441;28;20478;-73
2022/05/09 22:13:25;;;;;;;8.10;3.90;;;17.10;59.40;;;;;;5095132;28;20461;-73
2022/05/09 22:15:53;;;;;;;6.07;3.87;;;17.10;59.70;;;;;;5095311;28;20453;-73
2022/05/09 22:18:19;;;;;;;6.27;4.00;;;17.00;60.40;;;;;;5095309;28;20458;-73
2022/05/09 22:20:48;;;;;;;6.23;3.10;;;17.00;60.10;;;;;;5095358;28;20480;-73
2022/05/09 22:23:16;;;;;;;5.83;3.80;;;16.90;60.20;;;;;;5095252;28;20461;-73
2022/05/09 22:25:44;;;;;;;8.53;3.73;;;16.90;60.90;;;;;;5094673;28;20467;-73
2022/05/09 22:28:11;;;;;;;5.50;3.80;;;16.80;61.30;;;;;;5094771;28;20897;-73
2022/05/09 22:30:38;;;;;;;4.80;3.43;;;16.80;61.30;;;;;;5094947;28;20477;-72
2022/05/09 22:33:06;;;;;;;5.50;3.20;;;16.70;62.10;;;;;;5094779;28;20911;-72
2022/05/09 22:35:33;;;;;;;6.20;3.40;;;16.70;62.50;;;;;;5095150;28;20468;-73
2022/05/09 22:38:01;;;;;;;3.77;3.10;;;16.70;62.70;;;;;;5094654;28;20930;-73
2022/05/09 22:40:29;;;;;;;4.90;3.70;;;16.60;63.50;;;;;;5094787;28;20806;-73
2022/05/09 22:42:56;;;;;;;10.13;5.63;;;16.60;63.70;;;;;;5095343;28;20453;-73
2022/05/09 22:45:26;;;;;;;7.60;4.67;;;16.50;64.30;;;;;;5094816;28;20464;-73
2022/05/09 22:47:56;;;;;;;4.07;3.60;;;16.50;65.00;;;;;;5094732;28;20457;-73
2022/05/09 22:50:24;;;;;;;8.63;3.50;;;16.40;65.70;;;;;;5094776;28;20763;-73
2022/05/09 22:52:51;;;;;;;3.83;3.53;;;16.40;66.20;;;;;;5094816;28;20819;-73
2022/05/09 22:55:18;;;;;;;6.50;3.07;;;16.30;67.00;;;;;;5094526;28;20473;-73
2022/05/09 22:57:49;;;;;;;6.30;3.37;;;16.30;67.40;;;;;;5095101;28;20468;-73
2022/05/09 23:00:19;;;;;;;3.70;3.37;;;16.20;68.30;;;;;;5094448;28;20480;-73
2022/05/09 23:02:49;;;;;;;6.20;3.40;;;16.20;69.10;;;;;;5094725;28;20453;-74
2022/05/09 23:05:20;;;;;;;5.60;4.07;;;16.20;69.60;;;;;;5094696;28;20449;-73
2022/05/09 23:07:48;;;;;;;4.50;3.67;;;16.10;69.80;;;;;;5094463;28;20771;-73
2022/05/09 23:10:14;;;;;;;7.27;3.80;;;16.10;70.90;;;;;;5094562;28;20449;-73
2022/05/09 23:12:41;;;;;;;9.07;5.40;;;16.10;71.90;;;;;;5094185;28;20456;-72
2022/05/09 23:15:09;;;;;;;5.87;3.70;;;16.00;72.20;;;;;;5094499;28;20549;-73
2022/05/09 23:17:40;;;;;;;5.70;4.03;;;16.00;73.10;;;;;;5094859;28;20543;-73
2022/05/09 23:20:10;;;;;;;4.77;3.87;;;15.90;73.60;;;;;;5094776;28;20875;-73
2022/05/09 23:22:37;;;;;;;7.83;3.90;;;15.90;73.80;;;;;;5098696;28;20481;-73
2022/05/09 23:25:06;;;;;;;4.53;3.97;;;15.90;74.90;;;;;;5098635;28;20465;-73
2022/05/09 23:27:33;;;;;;;7.00;3.87;;;15.80;75.70;;;;;;5098556;28;20449;-73
2022/05/09 23:30:01;;;;;;;4.70;3.90;;;15.80;76.60;;;;;;5098495;28;20456;-73
2022/05/09 23:32:29;;;;;;;5.13;3.70;;;15.70;77.20;;;;;;5098603;28;20635;-72
2022/05/09 23:34:58;;;;;;;7.10;4.27;;;15.70;77.90;;;;;;5098415;28;20735;-72
2022/05/09 23:37:24;;;;;;;5.17;3.90;;;15.70;78.50;;;;;;5098025;28;20841;-73
2022/05/09 23:39:52;;;;;;;4.23;3.37;;;15.70;78.90;;;;;;5098329;28;20515;-73
2022/05/09 23:42:24;;;;;;;4.27;3.40;;;15.60;79.50;;;;;;5098339;28;20495;-73
2022/05/09 23:44:55;;;;;;;5.87;3.57;;;15.60;80.70;;;;;;5098237;28;20441;-73
2022/05/09 23:47:22;;;;;;;4.00;3.60;;;15.60;81.20;;;;;;5098349;28;20437;-72
2022/05/09 23:49:50;;;;;;;5.20;4.00;;;15.50;81.80;;;;;;5098459;28;20457;-73
2022/05/09 23:52:17;;;;;;;4.07;3.70;;;15.50;82.30;;;;;;5098017;28;20472;-73
2022/05/09 23:54:44;;;;;;;4.83;4.23;;;15.50;83.30;;;;;;5098029;28;20463;-73
2022/05/09 23:57:11;;;;;;;4.90;4.37;;;15.40;84.20;;;;;;5097998;28;20518;-73
2022/05/09 23:59:39;;;;;;;5.20;3.50;;;15.40;84.30;;;;;;5097562;28;20496;-73
